Lake Village, AR (71653)

4:08 PM CST on February 14, 2016 (GMT -0600)
Lake Hall Rd near Fawnwood Comm Ctr | | Change Station
CLOSE
Current Station
Personal Weather Station
Location: Lake Village, AR
Elevation: 118 ft
Nearby Weather Stations

Elev 118 ft 33.28 °N, 91.24 °W | Updated 6 minutes ago

Mostly Cloudy
Mostly Cloudy
61.2 °F
Feels Like 61.2 °F
N
5.0
Wind Variable Wind from South
Gusts 14.0 mph

Today
High -- | Low -- °F
--% Chance of Precip.
Yesterday
High -- | Low -- °F
Precip. -- in
Pressure 29.99 in
Visibility 10.0 miles
Clouds Few 4900 ft
Scattered Clouds 6500 ft
Dew Point 47 °F
Humidity 59%
Rainfall 0.00 in
Snow Depth Not available.
6:50 AM 5:48 PM
Waxing Crescent, 46% visible
METAR KGLH 142153Z AUTO 18014KT 10SM -RA FEW049 SCT065 17/04 A2997 RMK AO2 SLP156 P0000 T01670044
Pressure 29.99 in
Visibility 10.0 miles
Clouds Few 4900 ft
Scattered Clouds 6500 ft
Dew Point 47 °F
Humidity 59%
Rainfall 0.00 in
Snow Depth Not available.
6:50 AM 5:48 PM
Waxing Crescent, 46% visible
METAR KGLH 142153Z AUTO 18014KT 10SM -RA FEW049 SCT065 17/04 A2997 RMK AO2 SLP156 P0000 T01670044

10-Day Weather Forecast

Almanac

Astronomy

Feb. 14, 2016 Rise Set
Actual Time
Civil Twilight
Nautical Twilight
Astronomical Twilight
Moon
Length of Visible Light
Length of Day
Tomorrow will be .
, % of the Moon is Illuminated

Today's Extremes

State Highs State Lows

Community

WunderPhotos

Upload Photos

1,892,890 photos uploaded!

WunderBlog® & News

Nearby

Air Quality

  Air Quality AQ Index Pollutant
Not available.

Snow Depth

Station Depth Elevation

Earthquake Activity

City Distance Mag. Time & Date
Minimum magnitude displayed is 2.5.

Coastal Water Temperatures

Place Temperature

Stations

Nearby Weather Stations

Station Location Temp. Windchill Dew Point Humidity Wind Precip. Elev Updated Type
                   

Watches & Warnings

There are currently no watches in effect.